createdAt,value
2022-10-07T00:00:49.847Z,9.46
2022-10-07T00:01:49.874Z,9.48
2022-10-07T00:02:51.144Z,9.46
2022-10-07T00:03:49.750Z,9.46
2022-10-07T00:04:49.742Z,9.48
2022-10-07T00:05:49.727Z,9.49
2022-10-07T00:06:49.740Z,9.49
2022-10-07T00:07:49.720Z,9.49
2022-10-07T00:08:49.701Z,9.48
2022-10-07T00:09:49.685Z,9.52
2022-10-07T00:10:49.681Z,9.56
2022-10-07T00:11:49.661Z,9.56
2022-10-07T00:12:49.683Z,9.57
2022-10-07T00:13:49.643Z,9.56
2022-10-07T00:14:49.631Z,9.53
2022-10-07T00:15:49.632Z,9.52
2022-10-07T00:16:49.659Z,9.49
2022-10-07T00:17:49.613Z,9.49
2022-10-07T00:18:49.624Z,9.52
2022-10-07T00:19:49.586Z,9.53
2022-10-07T00:20:49.573Z,9.53
2022-10-07T00:21:49.553Z,9.50
2022-10-07T00:22:49.562Z,9.52
2022-10-07T00:23:49.545Z,9.49
2022-10-07T00:24:49.565Z,9.48
2022-10-07T00:25:49.523Z,9.45
2022-10-07T00:26:49.515Z,9.45
2022-10-07T00:27:49.509Z,9.43
2022-10-07T00:28:49.495Z,9.45
2022-10-07T00:29:49.493Z,9.45
2022-10-07T00:30:49.522Z,9.46
2022-10-07T00:31:53.513Z,9.48
2022-10-07T00:32:50.453Z,9.49
2022-10-07T00:33:49.501Z,9.52
2022-10-07T00:34:49.430Z,9.50
2022-10-07T00:35:49.418Z,9.49
2022-10-07T00:36:49.438Z,9.49
2022-10-07T00:37:49.401Z,9.49
2022-10-07T00:38:49.398Z,9.48
2022-10-07T00:39:49.379Z,9.46
2022-10-07T00:40:49.375Z,9.46
2022-10-07T00:41:49.359Z,9.45
2022-10-07T00:42:49.388Z,9.45
2022-10-07T00:43:49.342Z,9.48
2022-10-07T00:44:49.329Z,9.46
2022-10-07T00:45:49.338Z,9.45
2022-10-07T00:46:49.321Z,9.45
2022-10-07T00:47:49.309Z,9.45
2022-10-07T00:48:49.321Z,9.45
2022-10-07T00:49:49.272Z,9.43
2022-10-07T00:50:49.263Z,9.42
2022-10-07T00:51:49.260Z,9.42
2022-10-07T00:52:49.254Z,9.42
2022-10-07T00:53:49.240Z,9.43
2022-10-07T00:54:49.253Z,9.45
2022-10-07T00:55:49.214Z,9.46
2022-10-07T00:56:49.206Z,9.46
2022-10-07T00:57:49.194Z,9.49
2022-10-07T00:58:49.194Z,9.50
2022-10-07T00:59:49.173Z,9.49
2022-10-07T01:00:49.222Z,9.49
2022-10-07T01:01:49.154Z,9.48
2022-10-07T01:02:49.205Z,9.48
2022-10-07T01:03:49.135Z,9.45
2022-10-07T01:04:49.128Z,9.45
2022-10-07T01:05:49.113Z,9.43
2022-10-07T01:06:49.137Z,9.43
2022-10-07T01:07:49.096Z,9.43
2022-10-07T01:08:49.088Z,9.43
2022-10-07T01:09:49.068Z,9.42
2022-10-07T01:10:49.087Z,9.43
2022-10-07T01:11:49.051Z,9.43
2022-10-07T01:12:49.067Z,9.45
2022-10-07T01:13:49.028Z,9.45
2022-10-07T01:14:49.038Z,9.45
2022-10-07T01:15:49.009Z,9.43
2022-10-07T01:16:49.052Z,9.42
2022-10-07T01:17:48.999Z,9.45
2022-10-07T01:18:49.016Z,9.45
2022-10-07T01:19:48.970Z,9.45
2022-10-07T01:20:48.960Z,9.45
2022-10-07T01:21:48.952Z,9.42
2022-10-07T01:22:48.940Z,9.42
2022-10-07T01:23:48.929Z,9.42
2022-10-07T01:24:48.952Z,9.40
2022-10-07T01:25:48.901Z,9.39
2022-10-07T01:26:48.901Z,9.38
2022-10-07T01:27:48.891Z,9.38
2022-10-07T01:28:48.881Z,9.38
2022-10-07T01:29:48.863Z,9.38
2022-10-07T01:30:48.945Z,9.39
2022-10-07T01:31:48.840Z,9.38
2022-10-07T01:32:48.832Z,9.38
2022-10-07T01:33:48.821Z,9.38
2022-10-07T01:34:48.842Z,9.38
2022-10-07T01:35:48.795Z,9.38
2022-10-07T01:36:48.832Z,9.38
2022-10-07T01:37:48.794Z,9.39
2022-10-07T01:38:48.776Z,9.38
2022-10-07T01:39:48.755Z,9.40
2022-10-07T01:40:49.380Z,9.40
2022-10-07T01:41:48.737Z,9.40
2022-10-07T01:42:48.762Z,9.43
2022-10-07T01:43:48.717Z,9.42
2022-10-07T01:44:48.714Z,9.43
2022-10-07T01:45:48.726Z,9.43
2022-10-07T01:46:48.697Z,9.43
2022-10-07T01:47:48.685Z,9.43
2022-10-07T01:48:48.695Z,9.43
2022-10-07T01:49:48.665Z,9.42
2022-10-07T01:50:48.650Z,9.45
2022-10-07T01:51:48.639Z,9.43
2022-10-07T01:52:48.635Z,9.45
2022-10-07T01:53:48.610Z,9.45
2022-10-07T01:54:48.639Z,9.45
2022-10-07T01:55:48.599Z,9.45
2022-10-07T01:56:48.599Z,9.42
2022-10-07T01:57:48.580Z,9.40
2022-10-07T01:58:48.570Z,9.40
2022-10-07T01:59:48.551Z,9.39
2022-10-07T02:00:48.584Z,9.39
2022-10-07T02:01:48.581Z,9.39
2022-10-07T02:02:48.522Z,9.35
2022-10-07T02:03:48.553Z,9.35
2022-10-07T02:04:48.516Z,9.35
2022-10-07T02:05:48.493Z,9.35
2022-10-07T02:06:48.521Z,9.35
2022-10-07T02:07:48.482Z,9.38
2022-10-07T02:08:48.474Z,9.39
2022-10-07T02:09:48.452Z,9.42
2022-10-07T02:10:48.455Z,9.42
2022-10-07T02:11:48.433Z,9.42
2022-10-07T02:12:48.454Z,9.42
2022-10-07T02:13:48.419Z,9.43
2022-10-07T02:14:48.404Z,9.45
2022-10-07T02:15:48.417Z,9.45
2022-10-07T02:16:48.384Z,9.45
2022-10-07T02:17:48.376Z,9.43
2022-10-07T02:18:48.403Z,9.45
2022-10-07T02:19:48.345Z,9.45
2022-10-07T02:20:48.344Z,9.46
2022-10-07T02:21:48.327Z,9.45
2022-10-07T02:22:48.317Z,9.46
2022-10-07T02:23:48.309Z,9.48
2022-10-07T02:24:48.326Z,9.45
2022-10-07T02:25:48.297Z,9.46
2022-10-07T02:26:48.282Z,9.46
2022-10-07T02:27:48.278Z,9.46
2022-10-07T02:28:48.267Z,9.45
2022-10-07T02:29:48.251Z,9.46
2022-10-07T02:30:48.304Z,9.45
2022-10-07T02:31:48.229Z,9.46
2022-10-07T02:32:48.218Z,9.50
2022-10-07T02:33:48.208Z,9.53
2022-10-07T02:34:48.201Z,9.57
2022-10-07T02:35:48.189Z,9.61
2022-10-07T02:36:48.216Z,9.66
2022-10-07T02:37:48.171Z,9.68
2022-10-07T02:38:48.160Z,9.73
2022-10-07T02:39:48.150Z,9.78
2022-10-07T02:40:48.132Z,9.79
2022-10-07T02:41:48.130Z,9.85
2022-10-07T02:42:48.141Z,9.89
2022-10-07T02:43:48.112Z,9.93
2022-10-07T02:44:48.092Z,9.96
2022-10-07T02:45:48.093Z,9.97
2022-10-07T02:46:48.134Z,10.00
2022-10-07T02:47:48.114Z,10.03
2022-10-07T02:48:48.086Z,10.06
2022-10-07T02:49:48.050Z,10.09
2022-10-07T02:50:48.032Z,10.10
2022-10-07T02:51:48.026Z,10.15
2022-10-07T02:52:48.013Z,10.17
2022-10-07T02:53:48.015Z,10.21
2022-10-07T02:54:48.016Z,10.22
2022-10-07T02:55:47.983Z,10.28
2022-10-07T02:56:47.974Z,10.32
2022-10-07T02:57:48.289Z,10.33
2022-10-07T02:58:47.946Z,10.34
2022-10-07T02:59:47.946Z,10.32
2022-10-07T03:00:47.957Z,10.30
2022-10-07T03:01:49.329Z,10.28
2022-10-07T03:02:47.915Z,10.24
2022-10-07T03:03:47.993Z,10.22
2022-10-07T03:04:47.887Z,10.19
2022-10-07T03:05:47.878Z,10.15
2022-10-07T03:06:47.908Z,10.12
2022-10-07T03:07:47.867Z,10.10
2022-10-07T03:08:47.845Z,10.07
2022-10-07T03:09:47.838Z,10.07
2022-10-07T03:10:47.821Z,10.07
2022-10-07T03:11:47.821Z,10.09
2022-10-07T03:12:47.832Z,10.07
2022-10-07T03:13:47.820Z,10.06
2022-10-07T03:14:47.782Z,10.06
2022-10-07T03:15:47.821Z,10.03
2022-10-07T03:16:47.764Z,10.03
2022-10-07T03:17:47.895Z,10.01
2022-10-07T03:18:47.783Z,9.99
2022-10-07T03:19:47.730Z,9.97
2022-10-07T03:20:50.201Z,9.94
2022-10-07T03:21:47.709Z,9.96
2022-10-07T03:22:47.699Z,9.97
2022-10-07T03:23:47.692Z,10.00
2022-10-07T03:24:47.708Z,10.04
2022-10-07T03:25:47.677Z,10.09
2022-10-07T03:26:47.660Z,10.15
2022-10-07T03:27:47.810Z,10.18
2022-10-07T03:28:47.634Z,10.22
2022-10-07T03:29:47.633Z,10.24
2022-10-07T03:30:47.691Z,10.25
2022-10-07T03:31:47.604Z,10.32
2022-10-07T03:32:47.598Z,10.33
2022-10-07T03:33:47.585Z,10.36
2022-10-07T03:34:47.585Z,10.36
2022-10-07T03:35:47.564Z,10.36
2022-10-07T03:36:47.597Z,10.36
2022-10-07T03:37:47.758Z,10.37
2022-10-07T03:38:47.527Z,10.37
2022-10-07T03:39:47.523Z,10.40
2022-10-07T03:40:47.507Z,10.40
2022-10-07T03:41:47.503Z,10.40
2022-10-07T03:42:47.529Z,10.39
2022-10-07T03:43:47.519Z,10.39
2022-10-07T03:44:47.472Z,10.39
2022-10-07T03:45:47.497Z,10.37
2022-10-07T03:46:47.490Z,10.39
2022-10-07T03:47:47.549Z,10.39
2022-10-07T03:48:47.480Z,10.40
2022-10-07T03:49:47.419Z,10.40
2022-10-07T03:50:47.408Z,10.39
2022-10-07T03:51:47.404Z,10.40
2022-10-07T03:52:47.392Z,10.42
2022-10-07T03:53:47.373Z,10.40
2022-10-07T03:54:47.391Z,10.42
2022-10-07T03:55:47.358Z,10.43
2022-10-07T03:56:47.343Z,10.44
2022-10-07T03:57:47.776Z,10.47
2022-10-07T03:58:47.329Z,10.51
2022-10-07T03:59:47.321Z,10.52
2022-10-07T04:00:47.329Z,10.53
2022-10-07T04:01:47.340Z,10.53
2022-10-07T04:02:47.338Z,10.55
2022-10-07T04:03:47.288Z,10.56
2022-10-07T04:04:47.261Z,10.56
2022-10-07T04:05:47.255Z,10.56
2022-10-07T04:06:47.263Z,10.56
2022-10-07T04:07:47.423Z,10.59
2022-10-07T04:08:47.223Z,10.60
2022-10-07T04:09:47.215Z,10.59
2022-10-07T04:10:47.197Z,10.59
2022-10-07T04:11:47.186Z,10.58
2022-10-07T04:12:47.216Z,10.56
2022-10-07T04:13:47.181Z,10.56
2022-10-07T04:14:47.155Z,10.53
2022-10-07T04:15:47.168Z,10.47
2022-10-07T04:16:47.156Z,10.46
2022-10-07T04:17:47.386Z,10.43
2022-10-07T04:18:47.145Z,10.39
2022-10-07T04:19:47.138Z,10.34
2022-10-07T04:20:47.113Z,10.33
2022-10-07T04:21:47.089Z,10.28
2022-10-07T04:22:47.069Z,10.24
2022-10-07T04:23:47.066Z,10.21
2022-10-07T04:24:47.087Z,10.18
2022-10-07T04:25:47.050Z,10.14
2022-10-07T04:26:47.033Z,10.12
2022-10-07T04:27:51.900Z,10.09
2022-10-07T04:28:48.077Z,10.07
2022-10-07T04:29:47.020Z,10.07
2022-10-07T04:30:47.019Z,10.06
2022-10-07T04:31:47.025Z,10.07
2022-10-07T04:32:46.970Z,10.07
2022-10-07T04:33:46.961Z,10.07
2022-10-07T04:34:46.951Z,10.06
2022-10-07T04:35:46.949Z,10.07
2022-10-07T04:36:46.953Z,10.06
2022-10-07T04:37:47.315Z,10.03
2022-10-07T04:38:46.921Z,10.01
2022-10-07T04:40:00.278Z,10.01
2022-10-07T04:40:47.892Z,9.99
2022-10-07T04:41:46.879Z,9.97
2022-10-07T04:42:46.894Z,9.94
2022-10-07T04:43:46.872Z,9.94
2022-10-07T04:44:46.834Z,9.91
2022-10-07T04:45:46.833Z,9.91
2022-10-07T04:46:46.870Z,9.91
2022-10-07T04:47:47.135Z,9.88
2022-10-07T04:48:46.847Z,9.86
2022-10-07T04:49:46.803Z,9.85
2022-10-07T04:50:46.784Z,9.83
2022-10-07T04:51:46.775Z,9.86
2022-10-07T04:52:46.764Z,9.86
2022-10-07T04:53:46.756Z,9.86
2022-10-07T04:54:46.775Z,9.89
2022-10-07T04:55:46.733Z,9.91
2022-10-07T04:56:46.717Z,9.94
2022-10-07T04:57:47.103Z,9.94
2022-10-07T04:58:46.696Z,9.96
2022-10-07T04:59:46.647Z,9.97
2022-10-07T05:00:46.745Z,9.99
2022-10-07T05:01:46.632Z,10.00
2022-10-07T05:02:46.599Z,10.01
2022-10-07T05:03:46.601Z,10.03
2022-10-07T05:04:46.578Z,10.03
2022-10-07T05:05:46.578Z,10.03
2022-10-07T05:06:46.588Z,10.03
2022-10-07T05:07:47.151Z,10.04
2022-10-07T05:08:46.590Z,10.06
2022-10-07T05:09:46.554Z,10.06
2022-10-07T05:10:46.520Z,10.10
2022-10-07T05:11:46.539Z,10.09
2022-10-07T05:12:46.543Z,10.07
2022-10-07T05:13:46.501Z,10.10
2022-10-07T05:14:46.475Z,10.12
2022-10-07T05:15:46.468Z,10.10
2022-10-07T05:16:46.530Z,10.10
2022-10-07T05:17:46.678Z,10.10
2022-10-07T05:18:46.472Z,10.09
2022-10-07T05:19:46.433Z,10.12
2022-10-07T05:20:46.422Z,10.10
2022-10-07T05:21:46.411Z,10.10
2022-10-07T05:22:46.393Z,10.10
2022-10-07T05:23:46.394Z,10.12
2022-10-07T05:24:46.404Z,10.12
2022-10-07T05:25:46.371Z,10.15
2022-10-07T05:26:46.354Z,10.19
2022-10-07T05:27:46.517Z,10.21
2022-10-07T05:28:46.324Z,10.25
2022-10-07T05:29:46.325Z,10.32
2022-10-07T05:30:46.335Z,10.36
2022-10-07T05:31:46.345Z,10.42
2022-10-07T05:32:46.298Z,10.44
2022-10-07T05:33:46.285Z,10.47
2022-10-07T05:34:46.265Z,10.53
2022-10-07T05:35:46.259Z,10.55
2022-10-07T05:36:46.281Z,10.59
2022-10-07T05:37:50.810Z,10.60
2022-10-07T05:38:47.226Z,10.65
2022-10-07T05:39:46.219Z,10.66
2022-10-07T05:40:46.206Z,10.66
2022-10-07T05:41:46.227Z,10.70
2022-10-07T05:42:46.217Z,10.73
2022-10-07T05:43:46.176Z,10.74
2022-10-07T05:44:46.171Z,10.80
2022-10-07T05:45:46.198Z,10.81
2022-10-07T05:46:46.137Z,10.86
2022-10-07T05:47:46.596Z,10.89
2022-10-07T05:48:46.150Z,10.94
2022-10-07T05:49:46.116Z,10.96
2022-10-07T05:50:46.100Z,11.01
2022-10-07T05:51:46.104Z,11.02
2022-10-07T05:52:46.082Z,11.06
2022-10-07T05:53:46.072Z,11.11
2022-10-07T05:54:46.091Z,11.14
2022-10-07T05:55:46.054Z,11.17
2022-10-07T05:56:46.052Z,11.17
2022-10-07T05:57:46.560Z,11.20
2022-10-07T05:58:46.019Z,11.24
2022-10-07T05:59:46.050Z,11.27
2022-10-07T06:00:46.073Z,11.31
2022-10-07T06:01:46.042Z,11.31
2022-10-07T06:02:46.053Z,11.32
2022-10-07T06:03:45.983Z,11.34
2022-10-07T06:04:45.956Z,11.35
2022-10-07T06:05:45.952Z,11.35
2022-10-07T06:06:45.965Z,11.32
2022-10-07T06:07:46.390Z,11.36
2022-10-07T06:08:45.915Z,11.38
2022-10-07T06:09:45.912Z,11.41
2022-10-07T06:10:45.897Z,11.39
2022-10-07T06:11:45.890Z,11.39
2022-10-07T06:12:45.896Z,11.41
2022-10-07T06:13:45.865Z,11.41
2022-10-07T06:14:45.860Z,11.44
2022-10-07T06:15:45.847Z,11.44
2022-10-07T06:16:45.973Z,11.46
2022-10-07T06:17:46.170Z,11.47
2022-10-07T06:18:46.068Z,11.47
2022-10-07T06:19:45.823Z,11.46
2022-10-07T06:20:45.796Z,11.49
2022-10-07T06:21:45.789Z,11.49
2022-10-07T06:22:45.788Z,11.49
2022-10-07T06:23:45.768Z,11.49
2022-10-07T06:24:45.787Z,11.47
2022-10-07T06:25:45.742Z,11.50
2022-10-07T06:26:45.729Z,11.50
2022-10-07T06:27:48.535Z,11.52
2022-10-07T06:28:46.764Z,11.53
2022-10-07T06:29:45.700Z,11.54
2022-10-07T06:30:45.849Z,11.54
2022-10-07T06:31:45.691Z,11.54
2022-10-07T06:32:45.671Z,11.54
2022-10-07T06:33:45.662Z,11.56
2022-10-07T06:34:45.643Z,11.54
2022-10-07T06:35:45.641Z,11.56
2022-10-07T06:36:45.662Z,11.56
2022-10-07T06:37:45.924Z,11.57
2022-10-07T06:38:45.613Z,11.57
2022-10-07T06:39:45.675Z,11.57
2022-10-07T06:40:45.583Z,11.57
2022-10-07T06:41:45.583Z,11.57
2022-10-07T06:42:45.604Z,11.56
2022-10-07T06:43:45.564Z,11.57
2022-10-07T06:44:45.544Z,11.59
2022-10-07T06:45:45.591Z,11.59
2022-10-07T06:46:45.584Z,11.61
2022-10-07T06:47:45.820Z,11.64
2022-10-07T06:48:45.931Z,11.65
2022-10-07T06:49:45.505Z,11.65
2022-10-07T06:50:45.495Z,11.67
2022-10-07T06:51:45.486Z,11.67
2022-10-07T06:52:45.466Z,11.68
2022-10-07T06:53:45.465Z,11.68
2022-10-07T06:54:45.478Z,11.68
2022-10-07T06:55:45.440Z,11.71
2022-10-07T06:56:45.427Z,11.71
2022-10-07T06:57:46.321Z,11.71
2022-10-07T06:58:45.411Z,11.72
2022-10-07T06:59:45.396Z,11.72
2022-10-07T07:00:45.419Z,11.74
2022-10-07T07:01:45.410Z,11.74
2022-10-07T07:02:45.421Z,11.75
2022-10-07T07:03:45.358Z,11.75
2022-10-07T07:04:45.403Z,11.75
2022-10-07T07:05:45.886Z,11.78
2022-10-07T07:06:45.358Z,11.80
2022-10-07T07:07:45.618Z,11.80
2022-10-07T07:08:45.320Z,11.82
2022-10-07T07:09:45.302Z,11.83
2022-10-07T07:10:45.289Z,11.83
2022-10-07T07:11:45.285Z,11.85
2022-10-07T07:12:45.649Z,11.83
2022-10-07T07:13:46.040Z,11.83
2022-10-07T07:14:45.253Z,11.85
2022-10-07T07:15:45.234Z,11.85
2022-10-07T07:16:45.304Z,11.89
2022-10-07T07:17:45.439Z,11.90
2022-10-07T07:18:45.264Z,11.90
2022-10-07T07:19:45.203Z,11.93
2022-10-07T07:20:45.185Z,11.94
2022-10-07T07:21:48.971Z,11.96
2022-10-07T07:22:46.165Z,11.99
2022-10-07T07:23:45.148Z,12.01
2022-10-07T07:24:45.190Z,12.02
2022-10-07T07:25:45.125Z,12.04
2022-10-07T07:26:45.137Z,12.04
2022-10-07T07:27:45.345Z,12.05
2022-10-07T07:28:45.162Z,12.06
2022-10-07T07:29:45.103Z,12.06
2022-10-07T07:30:45.164Z,12.08
2022-10-07T07:31:45.067Z,12.11
2022-10-07T07:32:45.068Z,12.12
2022-10-07T07:33:45.049Z,12.13
2022-10-07T07:34:45.075Z,12.13
2022-10-07T07:35:45.059Z,12.15
2022-10-07T07:36:45.069Z,12.15
2022-10-07T07:37:45.218Z,12.15
2022-10-07T07:38:45.009Z,12.19
2022-10-07T07:39:44.991Z,12.19
2022-10-07T07:40:44.982Z,12.19
2022-10-07T07:41:44.972Z,12.19
2022-10-07T07:42:44.988Z,12.20
2022-10-07T07:43:44.941Z,12.20
2022-10-07T07:44:44.937Z,12.23
2022-10-07T07:45:44.972Z,12.24
2022-10-07T07:46:44.920Z,12.27
2022-10-07T07:47:45.185Z,12.27
2022-10-07T07:48:44.930Z,12.29
2022-10-07T07:49:44.881Z,12.27
2022-10-07T07:50:44.882Z,12.26
2022-10-07T07:51:44.863Z,12.27
2022-10-07T07:52:44.887Z,12.30
2022-10-07T07:53:44.843Z,12.30
2022-10-07T07:54:44.861Z,12.30
2022-10-07T07:55:44.826Z,12.31
2022-10-07T07:56:44.816Z,12.31
2022-10-07T07:57:45.026Z,12.33
2022-10-07T07:58:44.786Z,12.34
2022-10-07T07:59:44.785Z,12.34
2022-10-07T08:00:44.808Z,12.37
2022-10-07T08:01:44.756Z,12.34
2022-10-07T08:02:44.784Z,12.37
2022-10-07T08:03:44.740Z,12.37
2022-10-07T08:04:44.727Z,12.38
2022-10-07T08:05:44.720Z,12.39
2022-10-07T08:06:44.736Z,12.41
2022-10-07T08:07:44.933Z,12.42
2022-10-07T08:08:44.690Z,12.42
2022-10-07T08:09:44.676Z,12.44
2022-10-07T08:10:48.364Z,12.44
2022-10-07T08:11:45.692Z,12.45
2022-10-07T08:12:44.649Z,12.48
2022-10-07T08:13:44.630Z,12.51
2022-10-07T08:14:44.619Z,12.54
2022-10-07T08:15:44.658Z,12.59
2022-10-07T08:16:44.599Z,12.63
2022-10-07T08:17:44.867Z,12.69
2022-10-07T08:18:44.585Z,12.70
2022-10-07T08:19:44.583Z,12.71
2022-10-07T08:20:44.559Z,12.71
2022-10-07T08:21:44.553Z,12.74
2022-10-07T08:22:44.539Z,12.70
2022-10-07T08:23:44.580Z,12.71
2022-10-07T08:24:44.518Z,12.71
2022-10-07T08:25:45.349Z,12.74
2022-10-07T08:26:44.608Z,12.75
2022-10-07T08:27:44.869Z,12.77
2022-10-07T08:28:44.473Z,12.81
2022-10-07T08:29:44.483Z,12.84
2022-10-07T08:30:44.492Z,12.84
2022-10-07T08:31:44.435Z,12.84
2022-10-07T08:32:44.438Z,12.85
2022-10-07T08:33:44.417Z,12.82
2022-10-07T08:34:44.407Z,12.84
2022-10-07T08:35:44.425Z,12.84
2022-10-07T08:36:44.413Z,12.84
2022-10-07T08:37:44.684Z,12.81
2022-10-07T08:38:47.181Z,12.79
2022-10-07T08:39:44.347Z,12.77
2022-10-07T08:40:44.347Z,12.77
2022-10-07T08:41:44.358Z,12.74
2022-10-07T08:42:44.327Z,12.74
2022-10-07T08:43:44.325Z,12.71
2022-10-07T08:44:44.355Z,12.71
2022-10-07T08:45:44.290Z,12.71
2022-10-07T08:46:44.369Z,12.70
2022-10-07T08:47:44.655Z,12.71
2022-10-07T08:48:44.260Z,12.71
2022-10-07T08:49:44.252Z,12.74
2022-10-07T08:50:44.241Z,12.74
2022-10-07T08:51:44.222Z,12.77
2022-10-07T08:52:44.233Z,12.77
2022-10-07T08:53:44.241Z,12.78
2022-10-07T08:54:44.229Z,12.79
2022-10-07T08:55:44.214Z,12.79
2022-10-07T08:56:44.191Z,12.78
2022-10-07T08:57:44.437Z,12.79
2022-10-07T08:58:44.162Z,12.78
2022-10-07T08:59:44.182Z,12.77
2022-10-07T09:00:44.142Z,12.78
2022-10-07T09:01:44.173Z,12.78
2022-10-07T09:02:44.224Z,12.79
2022-10-07T09:03:44.115Z,12.82
2022-10-07T09:04:44.104Z,12.82
2022-10-07T09:05:44.113Z,12.85
2022-10-07T09:06:44.077Z,12.85
2022-10-07T09:07:44.308Z,12.88
2022-10-07T09:08:44.068Z,12.87
2022-10-07T09:09:44.045Z,12.89
2022-10-07T09:10:44.035Z,12.89
2022-10-07T09:11:44.056Z,12.89
2022-10-07T09:12:44.027Z,12.89
2022-10-07T09:13:43.999Z,12.92
2022-10-07T09:14:44.001Z,12.93
2022-10-07T09:15:44.011Z,12.93
2022-10-07T09:16:43.976Z,12.97
2022-10-07T09:17:43.996Z,13.00
2022-10-07T09:18:43.949Z,13.03
2022-10-07T09:19:43.951Z,13.07
2022-10-07T09:20:43.940Z,13.09
2022-10-07T09:21:43.919Z,13.09
2022-10-07T09:22:43.915Z,13.09
2022-10-07T09:23:43.921Z,13.07
2022-10-07T09:25:43.881Z,13.03
2022-10-07T09:26:43.870Z,13.02
2022-10-07T09:27:44.216Z,13.02
2022-10-07T09:28:43.882Z,13.00
2022-10-07T09:29:43.872Z,12.99
2022-10-07T09:30:43.877Z,13.00
2022-10-07T09:31:43.812Z,13.00
2022-10-07T09:32:43.803Z,13.00
2022-10-07T09:33:43.792Z,13.02
2022-10-07T09:34:43.793Z,13.00
2022-10-07T09:35:43.795Z,13.02
2022-10-07T09:36:43.768Z,13.02
2022-10-07T09:37:44.123Z,13.03
2022-10-07T09:38:43.744Z,13.03
2022-10-07T09:39:43.735Z,13.03
2022-10-07T09:40:43.724Z,13.04
2022-10-07T09:41:43.747Z,13.02
2022-10-07T09:42:43.706Z,13.02
2022-10-07T09:43:43.688Z,13.00
2022-10-07T09:44:43.685Z,13.02
2022-10-07T09:45:43.668Z,13.03
2022-10-07T09:46:43.699Z,13.06
2022-10-07T09:47:44.068Z,13.06
2022-10-07T09:48:43.667Z,13.07
2022-10-07T09:49:43.629Z,13.11
2022-10-07T09:50:43.621Z,13.12
2022-10-07T09:51:43.599Z,13.14
2022-10-07T09:52:43.599Z,13.15
2022-10-07T09:53:43.619Z,13.15
2022-10-07T09:54:43.581Z,13.18
2022-10-07T09:55:43.582Z,13.20
2022-10-07T09:56:43.550Z,13.24
2022-10-07T09:57:43.888Z,13.25
2022-10-07T09:58:43.538Z,13.25
2022-10-07T09:59:43.550Z,13.29
2022-10-07T10:00:43.521Z,13.29
2022-10-07T10:01:43.538Z,13.32
2022-10-07T10:02:43.572Z,13.33
2022-10-07T10:03:43.530Z,13.36
2022-10-07T10:04:43.472Z,13.40
2022-10-07T10:05:43.497Z,13.40
2022-10-07T10:06:43.454Z,13.43
2022-10-07T10:07:43.785Z,13.44
2022-10-07T10:08:43.442Z,13.44
2022-10-07T10:09:43.421Z,13.46
2022-10-07T10:10:43.414Z,13.47
2022-10-07T10:11:43.442Z,13.54
2022-10-07T10:12:43.681Z,13.55
2022-10-07T10:13:43.375Z,13.58
2022-10-07T10:14:43.376Z,13.61
2022-10-07T10:15:43.421Z,13.59
2022-10-07T10:16:43.354Z,13.56
2022-10-07T10:17:43.395Z,13.55
2022-10-07T10:18:43.334Z,13.52
2022-10-07T10:19:43.310Z,13.52
2022-10-07T10:20:43.307Z,13.51
2022-10-07T10:21:43.296Z,13.49
2022-10-07T10:22:43.589Z,13.47
2022-10-07T10:23:43.315Z,13.46
2022-10-07T10:24:43.268Z,13.46
2022-10-07T10:25:43.259Z,13.47
2022-10-07T10:26:43.257Z,13.47
2022-10-07T10:27:43.259Z,13.51
2022-10-07T10:28:43.284Z,13.52
2022-10-07T10:29:43.241Z,13.55
2022-10-07T10:30:43.209Z,13.56
2022-10-07T10:31:43.190Z,13.56
2022-10-07T10:32:43.502Z,13.58
2022-10-07T10:33:43.175Z,13.58
2022-10-07T10:34:43.161Z,13.58
2022-10-07T10:35:43.191Z,13.58
2022-10-07T10:36:43.150Z,13.59
2022-10-07T10:37:43.132Z,13.61
2022-10-07T10:38:43.122Z,13.62
2022-10-07T10:39:43.103Z,13.62
2022-10-07T10:40:43.102Z,13.63
2022-10-07T10:41:43.112Z,13.69
2022-10-07T10:42:43.418Z,13.74
2022-10-07T10:43:43.064Z,13.80
2022-10-07T10:44:43.062Z,13.84
2022-10-07T10:45:43.052Z,13.88
2022-10-07T10:46:43.115Z,13.89
2022-10-07T10:47:43.054Z,13.92
2022-10-07T10:48:43.023Z,13.92
2022-10-07T10:49:43.012Z,13.94
2022-10-07T10:50:43.006Z,13.92
2022-10-07T10:51:42.987Z,13.94
2022-10-07T10:52:43.438Z,13.96
2022-10-07T10:53:42.995Z,13.98
2022-10-07T10:54:42.964Z,13.99
2022-10-07T10:55:42.945Z,14.02
2022-10-07T10:56:42.938Z,14.04
2022-10-07T10:57:42.929Z,14.06
2022-10-07T10:58:42.918Z,14.06
2022-10-07T10:59:42.942Z,14.04
2022-10-07T11:00:42.898Z,14.04
2022-10-07T11:01:43.026Z,14.04
2022-10-07T11:02:43.383Z,14.06
2022-10-07T11:03:42.868Z,14.04
2022-10-07T11:04:42.861Z,14.02
2022-10-07T11:05:42.887Z,14.06
2022-10-07T11:06:42.835Z,14.06
2022-10-07T11:07:42.824Z,14.02
2022-10-07T11:08:42.813Z,14.06
2022-10-07T11:09:42.810Z,14.06
2022-10-07T11:10:43.226Z,14.04
2022-10-07T11:11:42.821Z,14.04
2022-10-07T11:12:43.059Z,14.04
2022-10-07T11:13:42.765Z,13.99
2022-10-07T11:14:42.754Z,13.96
2022-10-07T11:15:42.794Z,13.95
2022-10-07T11:16:42.734Z,13.92
2022-10-07T11:17:42.761Z,13.88
2022-10-07T11:18:42.715Z,13.81
2022-10-07T11:19:42.703Z,13.80
2022-10-07T11:20:44.782Z,13.77
2022-10-07T11:21:42.683Z,13.76
2022-10-07T11:22:42.793Z,13.74
2022-10-07T11:23:42.696Z,13.71
2022-10-07T11:24:42.649Z,13.71
2022-10-07T11:25:42.639Z,13.71
2022-10-07T11:26:42.630Z,13.71
2022-10-07T11:27:42.625Z,13.76
2022-10-07T11:28:42.655Z,13.79
2022-10-07T11:29:42.630Z,13.80
2022-10-07T11:30:42.592Z,13.79
2022-10-07T11:31:42.717Z,13.79
2022-10-07T11:32:42.922Z,13.79
2022-10-07T11:33:42.561Z,13.74
2022-10-07T11:34:42.549Z,13.71
2022-10-07T11:35:42.591Z,13.67
2022-10-07T11:36:42.529Z,13.62
2022-10-07T11:37:42.522Z,13.59
2022-10-07T11:38:42.511Z,13.54
2022-10-07T11:39:42.500Z,13.47
2022-10-07T11:40:42.495Z,13.41
2022-10-07T11:41:42.503Z,13.33
2022-10-07T11:42:42.650Z,13.32
2022-10-07T11:43:42.557Z,13.27
2022-10-07T11:44:42.445Z,13.24
2022-10-07T11:45:42.440Z,13.21
2022-10-07T11:46:42.482Z,13.20
2022-10-07T11:47:42.445Z,13.18
2022-10-07T11:48:42.404Z,13.15
2022-10-07T11:49:42.403Z,13.11
2022-10-07T11:50:42.386Z,13.09
2022-10-07T11:51:42.375Z,13.07
2022-10-07T11:52:42.373Z,13.07
2022-10-07T11:53:42.386Z,13.07
2022-10-07T11:54:42.346Z,13.06
2022-10-07T11:55:42.338Z,13.03
2022-10-07T11:56:42.326Z,13.02
2022-10-07T11:57:42.319Z,13.00
2022-10-07T11:58:42.311Z,12.99
2022-10-07T11:59:42.327Z,13.00
2022-10-07T12:00:42.288Z,12.99
2022-10-07T12:01:42.352Z,13.00
2022-10-07T12:02:42.379Z,13.03
2022-10-07T12:03:42.252Z,13.02
2022-10-07T12:04:42.239Z,13.00
2022-10-07T12:05:42.270Z,13.02
2022-10-07T12:06:42.229Z,13.03
2022-10-07T12:07:42.209Z,13.04
2022-10-07T12:08:42.203Z,13.06
2022-10-07T12:09:42.198Z,13.06
2022-10-07T12:10:42.192Z,13.06
2022-10-07T12:11:42.202Z,13.04
2022-10-07T12:12:42.411Z,13.06
2022-10-07T12:13:42.163Z,13.06
2022-10-07T12:14:43.081Z,13.06
2022-10-07T12:15:42.145Z,13.07
2022-10-07T12:16:42.225Z,13.07
2022-10-07T12:17:42.152Z,13.07
2022-10-07T12:18:42.095Z,13.04
2022-10-07T12:19:42.096Z,13.04
2022-10-07T12:20:42.076Z,13.02
2022-10-07T12:21:42.071Z,13.02
2022-10-07T12:22:42.152Z,13.00
2022-10-07T12:23:42.084Z,13.02
2022-10-07T12:24:42.038Z,13.00
2022-10-07T12:25:42.027Z,12.99
2022-10-07T12:26:42.018Z,12.97
2022-10-07T12:27:42.007Z,12.97
2022-10-07T12:28:42.059Z,12.97
2022-10-07T12:29:42.024Z,12.95
2022-10-07T12:30:41.977Z,12.96
2022-10-07T12:31:42.044Z,12.95
2022-10-07T12:32:42.025Z,12.95
2022-10-07T12:33:41.949Z,12.95
2022-10-07T12:34:41.940Z,12.93
2022-10-07T12:35:41.957Z,12.93
2022-10-07T12:36:41.919Z,12.95
2022-10-07T12:37:41.900Z,12.95
2022-10-07T12:38:41.891Z,12.95
2022-10-07T12:39:41.887Z,12.96
2022-10-07T12:40:41.871Z,12.97
2022-10-07T12:41:41.911Z,12.99
2022-10-07T12:42:41.901Z,13.02
2022-10-07T12:43:41.844Z,13.02
2022-10-07T12:44:41.834Z,13.03
2022-10-07T12:45:41.874Z,13.00
2022-10-07T12:46:41.811Z,12.99
2022-10-07T12:47:41.832Z,13.02
2022-10-07T12:48:41.793Z,13.03
2022-10-07T12:49:41.786Z,13.06
2022-10-07T12:50:41.764Z,13.04
2022-10-07T12:51:41.765Z,13.02
2022-10-07T12:52:41.752Z,12.99
2022-10-07T12:53:41.783Z,12.97
2022-10-07T12:54:41.726Z,12.96
2022-10-07T12:55:41.725Z,12.95
2022-10-07T12:56:41.705Z,12.93
2022-10-07T12:57:41.705Z,12.88
2022-10-07T12:58:41.689Z,12.84
2022-10-07T12:59:41.706Z,12.82